sensor_id;sensor_type;location;lat;lon;timestamp;P1;durP1;ratioP1;P2;durP2;ratioP2
49440;SDS011;35317;51.978;6.296;2022-11-20T00:01:42;34.00;;;15.80;;
49440;SDS011;35317;51.978;6.296;2022-11-20T00:06:43;40.47;;;16.98;;
49440;SDS011;35317;51.978;6.296;2022-11-20T00:11:44;39.40;;;18.13;;
49440;SDS011;35317;51.978;6.296;2022-11-20T00:16:45;38.78;;;17.05;;
49440;SDS011;35317;51.978;6.296;2022-11-20T00:21:45;36.78;;;17.10;;
49440;SDS011;35317;51.978;6.296;2022-11-20T00:26:46;36.88;;;17.45;;
49440;SDS011;35317;51.978;6.296;2022-11-20T00:31:47;45.60;;;18.25;;
49440;SDS011;35317;51.978;6.296;2022-11-20T00:36:48;42.13;;;18.10;;
49440;SDS011;35317;51.978;6.296;2022-11-20T00:41:48;42.00;;;17.45;;
49440;SDS011;35317;51.978;6.296;2022-11-20T00:46:50;38.80;;;17.27;;
49440;SDS011;35317;51.978;6.296;2022-11-20T00:51:50;36.92;;;18.08;;
49440;SDS011;35317;51.978;6.296;2022-11-20T00:56:54;39.13;;;17.92;;
49440;SDS011;35317;51.978;6.296;2022-11-20T01:01:56;41.08;;;18.50;;
49440;SDS011;35317;51.978;6.296;2022-11-20T01:06:57;51.08;;;21.85;;
49440;SDS011;35317;51.978;6.296;2022-11-20T01:11:57;51.65;;;23.45;;
49440;SDS011;35317;51.978;6.296;2022-11-20T01:16:59;49.70;;;21.88;;
49440;SDS011;35317;51.978;6.296;2022-11-20T01:21:59;55.88;;;23.58;;
49440;SDS011;35317;51.978;6.296;2022-11-20T01:27:00;46.67;;;21.83;;
49440;SDS011;35317;51.978;6.296;2022-11-20T01:32:01;39.97;;;18.75;;
49440;SDS011;35317;51.978;6.296;2022-11-20T01:37:01;44.83;;;19.15;;
49440;SDS011;35317;51.978;6.296;2022-11-20T01:42:02;37.03;;;17.40;;
49440;SDS011;35317;51.978;6.296;2022-11-20T01:52:38;38.95;;;18.13;;
49440;SDS011;35317;51.978;6.296;2022-11-20T01:57:43;39.67;;;17.73;;
49440;SDS011;35317;51.978;6.296;2022-11-20T02:02:47;39.88;;;17.70;;
49440;SDS011;35317;51.978;6.296;2022-11-20T02:07:52;42.17;;;18.45;;
49440;SDS011;35317;51.978;6.296;2022-11-20T02:12:56;41.75;;;18.13;;
49440;SDS011;35317;51.978;6.296;2022-11-20T02:18:16;44.47;;;18.58;;
49440;SDS011;35317;51.978;6.296;2022-11-20T02:28:33;43.33;;;19.30;;
49440;SDS011;35317;51.978;6.296;2022-11-20T02:33:34;43.25;;;19.38;;
49440;SDS011;35317;51.978;6.296;2022-11-20T02:38:35;39.53;;;18.92;;
49440;SDS011;35317;51.978;6.296;2022-11-20T02:43:36;40.70;;;19.10;;
49440;SDS011;35317;51.978;6.296;2022-11-20T02:48:37;41.08;;;18.92;;
49440;SDS011;35317;51.978;6.296;2022-11-20T02:53:37;38.55;;;17.92;;
49440;SDS011;35317;51.978;6.296;2022-11-20T02:58:38;43.90;;;18.98;;
49440;SDS011;35317;51.978;6.296;2022-11-20T03:03:39;42.72;;;19.65;;
49440;SDS011;35317;51.978;6.296;2022-11-20T03:08:40;49.65;;;20.80;;
49440;SDS011;35317;51.978;6.296;2022-11-20T03:13:40;40.28;;;18.02;;
49440;SDS011;35317;51.978;6.296;2022-11-20T03:18:41;45.38;;;19.90;;
49440;SDS011;35317;51.978;6.296;2022-11-20T03:23:42;40.90;;;19.23;;
49440;SDS011;35317;51.978;6.296;2022-11-20T03:28:50;46.45;;;20.10;;
49440;SDS011;35317;51.978;6.296;2022-11-20T03:33:56;43.35;;;19.10;;
49440;SDS011;35317;51.978;6.296;2022-11-20T03:38:58;43.85;;;19.48;;
49440;SDS011;35317;51.978;6.296;2022-11-20T03:44:00;42.17;;;18.45;;
49440;SDS011;35317;51.978;6.296;2022-11-20T03:49:03;44.05;;;18.80;;
49440;SDS011;35317;51.978;6.296;2022-11-20T03:54:05;41.15;;;18.55;;
49440;SDS011;35317;51.978;6.296;2022-11-20T03:59:09;44.55;;;20.23;;
49440;SDS011;35317;51.978;6.296;2022-11-20T04:04:10;45.90;;;18.45;;
49440;SDS011;35317;51.978;6.296;2022-11-20T04:09:11;38.10;;;18.02;;
49440;SDS011;35317;51.978;6.296;2022-11-20T04:14:15;39.38;;;18.33;;
49440;SDS011;35317;51.978;6.296;2022-11-20T04:19:16;39.63;;;18.15;;
49440;SDS011;35317;51.978;6.296;2022-11-20T04:24:17;41.28;;;18.75;;
49440;SDS011;35317;51.978;6.296;2022-11-20T04:29:18;44.47;;;18.33;;
49440;SDS011;35317;51.978;6.296;2022-11-20T04:34:19;41.55;;;18.88;;
49440;SDS011;35317;51.978;6.296;2022-11-20T04:39:19;39.08;;;18.10;;
49440;SDS011;35317;51.978;6.296;2022-11-20T04:44:20;36.75;;;16.30;;
49440;SDS011;35317;51.978;6.296;2022-11-20T04:49:21;38.80;;;16.70;;
49440;SDS011;35317;51.978;6.296;2022-11-20T04:54:21;37.58;;;16.85;;
49440;SDS011;35317;51.978;6.296;2022-11-20T04:59:22;40.35;;;17.52;;
49440;SDS011;35317;51.978;6.296;2022-11-20T05:04:23;36.70;;;17.50;;
49440;SDS011;35317;51.978;6.296;2022-11-20T05:09:23;36.08;;;17.20;;
49440;SDS011;35317;51.978;6.296;2022-11-20T05:14:24;40.78;;;17.58;;
49440;SDS011;35317;51.978;6.296;2022-11-20T05:19:25;38.00;;;18.27;;
49440;SDS011;35317;51.978;6.296;2022-11-20T05:24:26;41.97;;;17.48;;
49440;SDS011;35317;51.978;6.296;2022-11-20T05:29:26;44.10;;;19.38;;
49440;SDS011;35317;51.978;6.296;2022-11-20T05:34:27;40.70;;;17.60;;
49440;SDS011;35317;51.978;6.296;2022-11-20T05:39:28;41.75;;;18.15;;
49440;SDS011;35317;51.978;6.296;2022-11-20T05:44:28;35.42;;;16.55;;
49440;SDS011;35317;51.978;6.296;2022-11-20T05:49:29;37.22;;;17.85;;
49440;SDS011;35317;51.978;6.296;2022-11-20T05:54:30;39.75;;;17.73;;
49440;SDS011;35317;51.978;6.296;2022-11-20T05:59:31;39.83;;;16.52;;
49440;SDS011;35317;51.978;6.296;2022-11-20T06:04:31;41.20;;;18.33;;
49440;SDS011;35317;51.978;6.296;2022-11-20T06:09:32;40.50;;;18.48;;
49440;SDS011;35317;51.978;6.296;2022-11-20T06:14:33;40.70;;;18.35;;
49440;SDS011;35317;51.978;6.296;2022-11-20T06:19:34;40.28;;;17.42;;
49440;SDS011;35317;51.978;6.296;2022-11-20T06:24:35;38.78;;;17.30;;
49440;SDS011;35317;51.978;6.296;2022-11-20T06:29:35;47.28;;;18.48;;
49440;SDS011;35317;51.978;6.296;2022-11-20T06:34:36;40.55;;;17.52;;
49440;SDS011;35317;51.978;6.296;2022-11-20T06:39:37;42.38;;;17.52;;
49440;SDS011;35317;51.978;6.296;2022-11-20T06:44:37;42.65;;;19.33;;
49440;SDS011;35317;51.978;6.296;2022-11-20T06:49:38;41.50;;;17.73;;
49440;SDS011;35317;51.978;6.296;2022-11-20T06:54:39;40.28;;;17.75;;
49440;SDS011;35317;51.978;6.296;2022-11-20T06:59:40;40.40;;;17.88;;
49440;SDS011;35317;51.978;6.296;2022-11-20T07:04:40;41.83;;;17.60;;
49440;SDS011;35317;51.978;6.296;2022-11-20T07:09:41;39.22;;;18.20;;
49440;SDS011;35317;51.978;6.296;2022-11-20T07:14:42;40.60;;;18.55;;
49440;SDS011;35317;51.978;6.296;2022-11-20T07:19:42;42.67;;;19.58;;
49440;SDS011;35317;51.978;6.296;2022-11-20T07:24:43;41.83;;;18.02;;
49440;SDS011;35317;51.978;6.296;2022-11-20T07:29:45;47.38;;;20.17;;
49440;SDS011;35317;51.978;6.296;2022-11-20T07:34:49;38.85;;;17.92;;
49440;SDS011;35317;51.978;6.296;2022-11-20T07:39:49;42.05;;;18.77;;
49440;SDS011;35317;51.978;6.296;2022-11-20T07:44:50;46.47;;;19.85;;
49440;SDS011;35317;51.978;6.296;2022-11-20T07:49:51;44.27;;;19.00;;
49440;SDS011;35317;51.978;6.296;2022-11-20T07:54:52;43.50;;;19.38;;
49440;SDS011;35317;51.978;6.296;2022-11-20T07:59:52;43.78;;;19.42;;
49440;SDS011;35317;51.978;6.296;2022-11-20T08:04:53;42.95;;;19.85;;
49440;SDS011;35317;51.978;6.296;2022-11-20T08:09:54;45.88;;;20.95;;
49440;SDS011;35317;51.978;6.296;2022-11-20T08:14:55;48.90;;;21.38;;
49440;SDS011;35317;51.978;6.296;2022-11-20T08:19:58;45.83;;;21.45;;
49440;SDS011;35317;51.978;6.296;2022-11-20T08:24:59;51.97;;;23.75;;
49440;SDS011;35317;51.978;6.296;2022-11-20T08:30:00;54.97;;;25.42;;
49440;SDS011;35317;51.978;6.296;2022-11-20T08:35:01;61.08;;;26.23;;
49440;SDS011;35317;51.978;6.296;2022-11-20T08:40:02;60.22;;;27.42;;
49440;SDS011;35317;51.978;6.296;2022-11-20T08:45:03;65.15;;;29.40;;
49440;SDS011;35317;51.978;6.296;2022-11-20T08:50:05;69.03;;;30.52;;
49440;SDS011;35317;51.978;6.296;2022-11-20T08:55:07;69.30;;;31.70;;
49440;SDS011;35317;51.978;6.296;2022-11-20T09:00:09;64.22;;;31.15;;
49440;SDS011;35317;51.978;6.296;2022-11-20T09:05:11;68.28;;;32.28;;
49440;SDS011;35317;51.978;6.296;2022-11-20T09:10:12;69.25;;;30.95;;
49440;SDS011;35317;51.978;6.296;2022-11-20T09:15:12;67.80;;;32.33;;
49440;SDS011;35317;51.978;6.296;2022-11-20T09:20:14;69.00;;;33.22;;
49440;SDS011;35317;51.978;6.296;2022-11-20T09:25:14;66.47;;;33.75;;
49440;SDS011;35317;51.978;6.296;2022-11-20T09:30:15;74.88;;;35.13;;
49440;SDS011;35317;51.978;6.296;2022-11-20T09:35:16;72.60;;;35.92;;
49440;SDS011;35317;51.978;6.296;2022-11-20T09:40:22;75.60;;;38.15;;
49440;SDS011;35317;51.978;6.296;2022-11-20T09:56:08;58.70;;;31.05;;
49440;SDS011;35317;51.978;6.296;2022-11-20T10:01:18;64.45;;;30.75;;
49440;SDS011;35317;51.978;6.296;2022-11-20T10:06:33;58.67;;;29.90;;
49440;SDS011;35317;51.978;6.296;2022-11-20T10:29:33;58.20;;;33.03;;
49440;SDS011;35317;51.978;6.296;2022-11-20T10:39:54;59.80;;;33.78;;
49440;SDS011;35317;51.978;6.296;2022-11-20T10:50:26;61.40;;;31.65;;
49440;SDS011;35317;51.978;6.296;2022-11-20T11:01:02;51.35;;;30.25;;
49440;SDS011;35317;51.978;6.296;2022-11-20T11:06:34;51.47;;;29.38;;
49440;SDS011;35317;51.978;6.296;2022-11-20T11:11:40;51.55;;;29.35;;
49440;SDS011;35317;51.978;6.296;2022-11-20T11:16:51;45.95;;;26.60;;
49440;SDS011;35317;51.978;6.296;2022-11-20T11:21:57;48.17;;;27.08;;
49440;SDS011;35317;51.978;6.296;2022-11-20T11:26:59;48.92;;;25.80;;
49440;SDS011;35317;51.978;6.296;2022-11-20T11:32:27;44.15;;;25.80;;
49440;SDS011;35317;51.978;6.296;2022-11-20T11:37:29;44.90;;;24.75;;
49440;SDS011;35317;51.978;6.296;2022-11-20T11:42:35;45.55;;;25.38;;
49440;SDS011;35317;51.978;6.296;2022-11-20T11:47:52;49.20;;;28.38;;
49440;SDS011;35317;51.978;6.296;2022-11-20T12:03:48;47.67;;;26.48;;
49440;SDS011;35317;51.978;6.296;2022-11-20T12:09:05;39.40;;;23.42;;
49440;SDS011;35317;51.978;6.296;2022-11-20T12:14:17;36.95;;;20.90;;
49440;SDS011;35317;51.978;6.296;2022-11-20T12:19:37;33.95;;;20.10;;
49440;SDS011;35317;51.978;6.296;2022-11-20T12:30:00;33.35;;;20.50;;
49440;SDS011;35317;51.978;6.296;2022-11-20T12:35:30;32.55;;;19.30;;
49440;SDS011;35317;51.978;6.296;2022-11-20T12:46:00;34.55;;;20.95;;
49440;SDS011;35317;51.978;6.296;2022-11-20T13:02:45;35.35;;;20.52;;
49440;SDS011;35317;51.978;6.296;2022-11-20T13:08:24;38.47;;;21.25;;
49440;SDS011;35317;51.978;6.296;2022-11-20T13:19:35;38.63;;;21.50;;
49440;SDS011;35317;51.978;6.296;2022-11-20T13:24:36;43.17;;;24.92;;
49440;SDS011;35317;51.978;6.296;2022-11-20T13:29:37;38.72;;;23.30;;
49440;SDS011;35317;51.978;6.296;2022-11-20T13:34:55;42.75;;;24.30;;
49440;SDS011;35317;51.978;6.296;2022-11-20T13:45:09;49.45;;;28.08;;
49440;SDS011;35317;51.978;6.296;2022-11-20T13:56:05;43.75;;;25.73;;
49440;SDS011;35317;51.978;6.296;2022-11-20T14:01:21;46.25;;;26.98;;
49440;SDS011;35317;51.978;6.296;2022-11-20T14:11:31;62.22;;;34.17;;
49440;SDS011;35317;51.978;6.296;2022-11-20T14:16:34;64.57;;;32.97;;
49440;SDS011;35317;51.978;6.296;2022-11-20T14:21:36;58.13;;;32.30;;
49440;SDS011;35317;51.978;6.296;2022-11-20T14:26:37;60.70;;;30.02;;
49440;SDS011;35317;51.978;6.296;2022-11-20T14:31:44;56.03;;;29.30;;
49440;SDS011;35317;51.978;6.296;2022-11-20T14:36:48;59.38;;;31.13;;
49440;SDS011;35317;51.978;6.296;2022-11-20T14:41:53;54.00;;;28.50;;
49440;SDS011;35317;51.978;6.296;2022-11-20T14:46:54;58.58;;;30.35;;
49440;SDS011;35317;51.978;6.296;2022-11-20T14:51:59;59.08;;;29.92;;
49440;SDS011;35317;51.978;6.296;2022-11-20T14:57:02;56.75;;;30.90;;
49440;SDS011;35317;51.978;6.296;2022-11-20T15:02:05;61.47;;;30.60;;
49440;SDS011;35317;51.978;6.296;2022-11-20T15:07:09;63.13;;;31.75;;
49440;SDS011;35317;51.978;6.296;2022-11-20T15:12:15;57.63;;;30.58;;
49440;SDS011;35317;51.978;6.296;2022-11-20T15:17:18;60.30;;;31.70;;
49440;SDS011;35317;51.978;6.296;2022-11-20T15:22:18;59.67;;;29.10;;
49440;SDS011;35317;51.978;6.296;2022-11-20T15:27:19;61.28;;;33.08;;
49440;SDS011;35317;51.978;6.296;2022-11-20T15:32:20;67.65;;;32.60;;
49440;SDS011;35317;51.978;6.296;2022-11-20T15:37:20;68.85;;;34.03;;
49440;SDS011;35317;51.978;6.296;2022-11-20T15:42:21;68.20;;;33.47;;
49440;SDS011;35317;51.978;6.296;2022-11-20T15:47:24;71.00;;;32.20;;
49440;SDS011;35317;51.978;6.296;2022-11-20T15:52:28;77.15;;;33.72;;
49440;SDS011;35317;51.978;6.296;2022-11-20T15:57:32;74.75;;;34.22;;
49440;SDS011;35317;51.978;6.296;2022-11-20T16:02:33;86.35;;;37.08;;
49440;SDS011;35317;51.978;6.296;2022-11-20T16:07:34;69.28;;;33.78;;
49440;SDS011;35317;51.978;6.296;2022-11-20T16:12:34;78.57;;;37.50;;
49440;SDS011;35317;51.978;6.296;2022-11-20T16:17:53;91.15;;;36.97;;
49440;SDS011;35317;51.978;6.296;2022-11-20T16:22:54;83.85;;;37.60;;
49440;SDS011;35317;51.978;6.296;2022-11-20T16:27:55;96.03;;;37.92;;
49440;SDS011;35317;51.978;6.296;2022-11-20T16:32:59;94.30;;;38.10;;
49440;SDS011;35317;51.978;6.296;2022-11-20T16:38:01;107.47;;;40.58;;
49440;SDS011;35317;51.978;6.296;2022-11-20T16:43:10;96.10;;;39.92;;
49440;SDS011;35317;51.978;6.296;2022-11-20T16:48:14;88.10;;;36.38;;
49440;SDS011;35317;51.978;6.296;2022-11-20T16:53:19;98.40;;;38.10;;
49440;SDS011;35317;51.978;6.296;2022-11-20T16:58:23;90.63;;;36.20;;
49440;SDS011;35317;51.978;6.296;2022-11-20T17:03:24;100.35;;;37.28;;
49440;SDS011;35317;51.978;6.296;2022-11-20T17:08:26;85.47;;;34.47;;
49440;SDS011;35317;51.978;6.296;2022-11-20T17:18:33;92.30;;;37.17;;
49440;SDS011;35317;51.978;6.296;2022-11-20T17:23:35;95.05;;;36.78;;
49440;SDS011;35317;51.978;6.296;2022-11-20T17:28:41;98.22;;;35.35;;
49440;SDS011;35317;51.978;6.296;2022-11-20T17:33:44;85.75;;;34.58;;
49440;SDS011;35317;51.978;6.296;2022-11-20T17:38:45;109.45;;;38.92;;
49440;SDS011;35317;51.978;6.296;2022-11-20T17:43:47;90.30;;;35.17;;
49440;SDS011;35317;51.978;6.296;2022-11-20T17:48:52;97.15;;;35.30;;
49440;SDS011;35317;51.978;6.296;2022-11-20T17:53:55;88.32;;;33.88;;
49440;SDS011;35317;51.978;6.296;2022-11-20T17:59:02;110.70;;;40.25;;
49440;SDS011;35317;51.978;6.296;2022-11-20T18:04:13;96.15;;;36.33;;
49440;SDS011;35317;51.978;6.296;2022-11-20T18:09:14;107.63;;;38.95;;
49440;SDS011;35317;51.978;6.296;2022-11-20T18:14:16;110.47;;;41.15;;
49440;SDS011;35317;51.978;6.296;2022-11-20T18:19:37;112.90;;;39.92;;
49440;SDS011;35317;51.978;6.296;2022-11-20T18:24:40;127.18;;;41.92;;
49440;SDS011;35317;51.978;6.296;2022-11-20T18:29:42;119.57;;;41.95;;
49440;SDS011;35317;51.978;6.296;2022-11-20T18:34:45;122.65;;;42.80;;
49440;SDS011;35317;51.978;6.296;2022-11-20T18:39:46;150.18;;;45.70;;
49440;SDS011;35317;51.978;6.296;2022-11-20T18:44:48;144.85;;;44.80;;
49440;SDS011;35317;51.978;6.296;2022-11-20T18:49:56;164.02;;;48.20;;
49440;SDS011;35317;51.978;6.296;2022-11-20T18:55:00;179.82;;;50.63;;
49440;SDS011;35317;51.978;6.296;2022-11-20T19:00:03;155.50;;;48.80;;
49440;SDS011;35317;51.978;6.296;2022-11-20T19:05:07;186.52;;;50.85;;
49440;SDS011;35317;51.978;6.296;2022-11-20T19:10:09;145.65;;;47.17;;
49440;SDS011;35317;51.978;6.296;2022-11-20T19:15:10;178.20;;;49.17;;
49440;SDS011;35317;51.978;6.296;2022-11-20T19:20:11;152.95;;;48.85;;
49440;SDS011;35317;51.978;6.296;2022-11-20T19:25:15;147.20;;;48.55;;
49440;SDS011;35317;51.978;6.296;2022-11-20T19:30:16;159.23;;;50.45;;
49440;SDS011;35317;51.978;6.296;2022-11-20T19:35:16;163.52;;;49.00;;
49440;SDS011;35317;51.978;6.296;2022-11-20T19:40:21;154.02;;;49.05;;
49440;SDS011;35317;51.978;6.296;2022-11-20T19:45:24;176.05;;;52.38;;
49440;SDS011;35317;51.978;6.296;2022-11-20T19:50:25;178.73;;;52.13;;
49440;SDS011;35317;51.978;6.296;2022-11-20T19:55:26;266.83;;;58.92;;
49440;SDS011;35317;51.978;6.296;2022-11-20T20:00:27;189.25;;;53.10;;
49440;SDS011;35317;51.978;6.296;2022-11-20T20:05:29;198.50;;;56.58;;
49440;SDS011;35317;51.978;6.296;2022-11-20T20:10:30;158.55;;;51.53;;
49440;SDS011;35317;51.978;6.296;2022-11-20T20:15:31;218.57;;;57.85;;
49440;SDS011;35317;51.978;6.296;2022-11-20T20:20:32;234.85;;;58.70;;
49440;SDS011;35317;51.978;6.296;2022-11-20T20:25:33;176.93;;;53.97;;
49440;SDS011;35317;51.978;6.296;2022-11-20T20:30:41;194.13;;;57.90;;
49440;SDS011;35317;51.978;6.296;2022-11-20T20:35:42;240.88;;;60.65;;
49440;SDS011;35317;51.978;6.296;2022-11-20T20:40:46;239.80;;;60.80;;
49440;SDS011;35317;51.978;6.296;2022-11-20T20:45:48;231.90;;;60.80;;
49440;SDS011;35317;51.978;6.296;2022-11-20T20:50:57;184.57;;;55.78;;
49440;SDS011;35317;51.978;6.296;2022-11-20T20:56:00;197.10;;;57.03;;
49440;SDS011;35317;51.978;6.296;2022-11-20T21:01:05;220.43;;;59.30;;
49440;SDS011;35317;51.978;6.296;2022-11-20T21:06:10;210.23;;;56.33;;
49440;SDS011;35317;51.978;6.296;2022-11-20T21:11:12;225.07;;;59.10;;
49440;SDS011;35317;51.978;6.296;2022-11-20T21:16:20;200.02;;;57.75;;
49440;SDS011;35317;51.978;6.296;2022-11-20T21:21:24;224.65;;;58.78;;
49440;SDS011;35317;51.978;6.296;2022-11-20T21:26:43;249.60;;;63.20;;
49440;SDS011;35317;51.978;6.296;2022-11-20T21:31:44;212.55;;;60.33;;
49440;SDS011;35317;51.978;6.296;2022-11-20T21:36:45;171.70;;;54.72;;
49440;SDS011;35317;51.978;6.296;2022-11-20T21:41:46;241.85;;;62.08;;
49440;SDS011;35317;51.978;6.296;2022-11-20T21:46:47;263.77;;;63.80;;
49440;SDS011;35317;51.978;6.296;2022-11-20T21:51:48;238.13;;;60.33;;
49440;SDS011;35317;51.978;6.296;2022-11-20T21:56:48;207.00;;;57.67;;
49440;SDS011;35317;51.978;6.296;2022-11-20T22:01:49;226.60;;;59.22;;
49440;SDS011;35317;51.978;6.296;2022-11-20T22:06:50;227.73;;;59.85;;
49440;SDS011;35317;51.978;6.296;2022-11-20T22:11:51;201.52;;;53.42;;
49440;SDS011;35317;51.978;6.296;2022-11-20T22:16:52;184.30;;;52.72;;
49440;SDS011;35317;51.978;6.296;2022-11-20T22:21:53;160.93;;;48.22;;
49440;SDS011;35317;51.978;6.296;2022-11-20T22:26:53;194.93;;;54.15;;
49440;SDS011;35317;51.978;6.296;2022-11-20T22:31:54;210.70;;;57.15;;
49440;SDS011;35317;51.978;6.296;2022-11-20T22:36:55;217.00;;;55.80;;
49440;SDS011;35317;51.978;6.296;2022-11-20T22:41:56;349.55;;;65.95;;
49440;SDS011;35317;51.978;6.296;2022-11-20T22:47:11;188.07;;;52.78;;
49440;SDS011;35317;51.978;6.296;2022-11-20T22:52:12;123.20;;;43.08;;
49440;SDS011;35317;51.978;6.296;2022-11-20T22:57:13;144.48;;;41.53;;
49440;SDS011;35317;51.978;6.296;2022-11-20T23:02:14;142.57;;;40.47;;
49440;SDS011;35317;51.978;6.296;2022-11-20T23:07:14;138.00;;;41.13;;
49440;SDS011;35317;51.978;6.296;2022-11-20T23:12:15;94.10;;;34.92;;
49440;SDS011;35317;51.978;6.296;2022-11-20T23:17:16;115.05;;;35.88;;
49440;SDS011;35317;51.978;6.296;2022-11-20T23:22:16;139.23;;;38.40;;
49440;SDS011;35317;51.978;6.296;2022-11-20T23:27:17;124.40;;;37.58;;
49440;SDS011;35317;51.978;6.296;2022-11-20T23:32:18;130.73;;;39.88;;
49440;SDS011;35317;51.978;6.296;2022-11-20T23:37:18;120.07;;;39.60;;
49440;SDS011;35317;51.978;6.296;2022-11-20T23:42:19;123.95;;;38.97;;
49440;SDS011;35317;51.978;6.296;2022-11-20T23:47:20;134.18;;;41.85;;
49440;SDS011;35317;51.978;6.296;2022-11-20T23:52:21;187.65;;;46.55;;
49440;SDS011;35317;51.978;6.296;2022-11-20T23:57:21;132.93;;;41.72;;
